createdAt,value
2018-08-06T00:00:43.154Z,22.80
2018-08-06T00:03:11.575Z,22.70
2018-08-06T00:05:40.043Z,22.60
2018-08-06T00:08:08.575Z,22.50
2018-08-06T00:10:37.076Z,22.50
2018-08-06T00:13:05.542Z,22.40
2018-08-06T00:15:33.998Z,22.40
2018-08-06T00:18:02.433Z,22.40
2018-08-06T00:20:30.910Z,22.30
2018-08-06T00:22:59.351Z,22.30
2018-08-06T00:27:55.895Z,22.20
2018-08-06T00:30:24.342Z,22.20
2018-08-06T00:32:52.806Z,22.20
2018-08-06T00:35:21.241Z,22.20
2018-08-06T00:40:19.714Z,22.10
2018-08-06T00:42:48.630Z,22.10
2018-08-06T00:45:18.944Z,22.10
2018-08-06T00:47:47.846Z,22.00
2018-08-06T00:50:16.308Z,22.00
2018-08-06T00:52:44.759Z,21.90
2018-08-06T00:55:15.862Z,21.90
2018-08-06T00:57:44.342Z,21.80
2018-08-06T01:00:16.698Z,21.80
2018-08-06T01:02:45.159Z,21.80
2018-08-06T01:05:14.466Z,21.80
2018-08-06T01:07:43.662Z,21.80
2018-08-06T01:10:15.194Z,21.70
2018-08-06T01:12:43.655Z,21.70
2018-08-06T01:15:14.019Z,21.70
2018-08-06T01:17:42.515Z,21.60
2018-08-06T01:20:12.647Z,21.60
2018-08-06T01:22:41.824Z,21.60
2018-08-06T01:25:10.326Z,21.50
2018-08-06T01:30:08.823Z,21.50
2018-08-06T01:32:37.722Z,21.40
2018-08-06T01:37:35.003Z,21.30
2018-08-06T01:40:03.491Z,21.30
2018-08-06T01:42:31.914Z,21.20
2018-08-06T01:45:00.355Z,21.10
2018-08-06T01:47:28.806Z,21.10
2018-08-06T01:52:25.342Z,21.00
2018-08-06T01:54:53.775Z,20.90
2018-08-06T01:57:22.196Z,20.90
2018-08-06T01:59:50.627Z,20.90
2018-08-06T02:02:19.106Z,20.90
2018-08-06T02:04:47.568Z,20.90
2018-08-06T02:09:44.139Z,20.90
2018-08-06T02:12:12.634Z,20.90
2018-08-06T02:14:41.074Z,20.80
2018-08-06T02:17:09.515Z,20.80
2018-08-06T02:19:37.972Z,20.80
2018-08-06T02:22:06.516Z,20.80
2018-08-06T02:24:34.992Z,20.70
2018-08-06T02:27:03.505Z,20.70
2018-08-06T02:29:31.992Z,20.70
2018-08-06T02:32:00.460Z,20.70
2018-08-06T02:36:57.069Z,20.70
2018-08-06T02:39:25.572Z,20.70
2018-08-06T02:41:54.088Z,20.70
2018-08-06T02:44:22.566Z,20.70
2018-08-06T02:46:51.004Z,20.60
2018-08-06T02:49:19.524Z,20.60
2018-08-06T02:51:48.049Z,20.60
2018-08-06T02:54:16.522Z,20.60
2018-08-06T02:56:45.025Z,20.50
2018-08-06T02:59:13.536Z,20.50
2018-08-06T03:04:10.141Z,20.50
2018-08-06T03:06:38.591Z,20.40
2018-08-06T03:09:09.734Z,20.40
2018-08-06T03:11:38.491Z,20.40
2018-08-06T03:14:07.035Z,20.40
2018-08-06T03:16:35.510Z,20.40
2018-08-06T03:19:04.095Z,20.30
2018-08-06T03:21:32.548Z,20.30
2018-08-06T03:26:29.304Z,20.20
2018-08-06T03:31:25.977Z,20.20
2018-08-06T03:33:54.455Z,20.10
2018-08-06T03:36:22.931Z,20.10
2018-08-06T03:38:51.400Z,20.10
2018-08-06T03:41:19.863Z,20.00
2018-08-06T03:43:48.336Z,20.00
2018-08-06T03:46:16.805Z,20.00
2018-08-06T03:48:45.228Z,20.00
2018-08-06T03:53:41.843Z,19.90
2018-08-06T03:56:10.327Z,19.90
2018-08-06T03:58:38.765Z,19.90
2018-08-06T04:01:07.555Z,19.90
2018-08-06T04:03:35.988Z,19.90
2018-08-06T04:06:04.475Z,19.90
2018-08-06T04:08:32.920Z,19.80
2018-08-06T04:11:01.348Z,19.80
2018-08-06T04:13:29.871Z,19.80
2018-08-06T04:15:58.299Z,19.80
2018-08-06T04:18:26.761Z,19.80
2018-08-06T04:20:55.199Z,19.80
2018-08-06T04:23:23.652Z,19.80
2018-08-06T04:28:20.234Z,19.70
2018-08-06T04:30:48.662Z,19.70
2018-08-06T04:33:17.184Z,19.70
2018-08-06T04:35:45.654Z,19.70
2018-08-06T04:38:14.096Z,19.70
2018-08-06T04:40:42.609Z,19.70
2018-08-06T04:43:11.081Z,19.70
2018-08-06T04:45:39.542Z,19.70
2018-08-06T04:48:08.049Z,19.70
2018-08-06T04:50:36.480Z,19.70
2018-08-06T04:53:04.995Z,19.70
2018-08-06T04:55:33.467Z,19.70
2018-08-06T04:58:02.048Z,19.60
2018-08-06T05:00:30.494Z,19.60
2018-08-06T05:02:58.971Z,19.60
2018-08-06T05:05:27.485Z,19.60
2018-08-06T05:07:55.959Z,19.60
2018-08-06T05:10:24.407Z,19.60
2018-08-06T05:12:52.856Z,19.70
2018-08-06T05:15:21.668Z,19.70
2018-08-06T05:17:50.194Z,19.70
2018-08-06T05:20:18.750Z,19.70
2018-08-06T05:22:47.313Z,19.80
2018-08-06T05:27:44.028Z,19.80
2018-08-06T05:30:13.792Z,19.80
2018-08-06T05:32:42.340Z,19.90
2018-08-06T05:35:10.959Z,19.90
2018-08-06T05:37:39.427Z,19.90
2018-08-06T05:42:36.731Z,20.00
2018-08-06T05:45:07.124Z,19.90
2018-08-06T05:47:35.555Z,19.90
2018-08-06T05:50:05.117Z,19.90
2018-08-06T05:52:33.547Z,19.80
2018-08-06T05:55:02.084Z,19.90
2018-08-06T05:57:30.563Z,19.90
2018-08-06T05:59:59.023Z,19.90
2018-08-06T06:02:27.511Z,19.90
2018-08-06T06:04:55.991Z,20.00
2018-08-06T06:07:24.459Z,19.90
2018-08-06T06:09:52.903Z,20.00
2018-08-06T06:12:21.416Z,20.00
2018-08-06T06:14:49.931Z,20.10
2018-08-06T06:19:46.523Z,20.10
2018-08-06T06:22:14.977Z,20.10
2018-08-06T06:24:43.508Z,20.20
2018-08-06T06:27:11.944Z,20.30
2018-08-06T06:29:40.433Z,20.30
2018-08-06T06:32:08.891Z,20.40
2018-08-06T06:37:05.955Z,20.50
2018-08-06T06:39:34.403Z,20.60
2018-08-06T06:42:02.952Z,20.60
2018-08-06T06:44:31.643Z,20.70
2018-08-06T06:47:00.107Z,20.80
2018-08-06T06:49:28.569Z,20.90
2018-08-06T06:51:56.995Z,20.90
2018-08-06T06:54:25.480Z,21.00
2018-08-06T06:56:53.908Z,21.10
2018-08-06T07:01:50.480Z,21.20
2018-08-06T07:04:18.924Z,21.30
2018-08-06T07:06:47.391Z,21.40
2018-08-06T07:09:15.859Z,21.50
2018-08-06T07:11:44.363Z,21.50
2018-08-06T07:14:12.840Z,21.60
2018-08-06T07:16:41.296Z,21.70
2018-08-06T07:19:09.732Z,21.80
2018-08-06T07:21:38.299Z,21.90
2018-08-06T07:24:06.832Z,22.00
2018-08-06T07:26:35.595Z,22.10
2018-08-06T07:31:32.363Z,22.20
2018-08-06T07:36:29.016Z,22.50
2018-08-06T07:38:57.451Z,22.60
2018-08-06T07:41:25.939Z,22.70
2018-08-06T07:43:54.427Z,22.70
2018-08-06T07:46:22.913Z,22.80
2018-08-06T07:48:51.363Z,22.90
2018-08-06T07:51:19.828Z,23.00
2018-08-06T07:53:48.260Z,23.10
2018-08-06T07:56:16.747Z,23.20
2018-08-06T07:58:45.235Z,23.30
2018-08-06T08:01:13.712Z,23.40
2018-08-06T08:03:42.155Z,23.50
2018-08-06T08:06:10.644Z,23.60
2018-08-06T08:08:39.139Z,23.60
2018-08-06T08:11:07.608Z,23.70
2018-08-06T08:13:36.040Z,23.70
2018-08-06T08:16:04.856Z,23.80
2018-08-06T08:18:33.324Z,23.90
2018-08-06T08:21:01.837Z,24.00
2018-08-06T08:23:30.319Z,24.00
2018-08-06T08:25:58.859Z,24.20
2018-08-06T08:30:55.507Z,24.30
2018-08-06T08:33:23.944Z,24.30
2018-08-06T08:35:52.712Z,24.40
2018-08-06T08:38:21.155Z,24.40
2018-08-06T08:40:49.616Z,24.50
2018-08-06T08:43:18.104Z,24.50
2018-08-06T08:45:46.607Z,24.70
2018-08-06T08:48:15.108Z,24.80
2018-08-06T08:50:43.555Z,24.80
2018-08-06T08:53:12.040Z,24.90
2018-08-06T08:55:40.485Z,25.00
2018-08-06T08:58:08.971Z,25.00
2018-08-06T09:00:37.416Z,25.20
2018-08-06T09:03:07.088Z,25.20
2018-08-06T09:05:35.593Z,25.30
2018-08-06T09:10:32.284Z,25.40
2018-08-06T09:13:00.815Z,25.50
2018-08-06T09:15:29.259Z,25.60
2018-08-06T09:17:57.789Z,25.60
2018-08-06T09:22:54.883Z,25.80
2018-08-06T09:25:23.365Z,25.90
2018-08-06T09:27:52.228Z,25.90
2018-08-06T09:30:22.019Z,26.00
2018-08-06T09:32:54.926Z,26.00
2018-08-06T09:37:51.684Z,26.10
2018-08-06T09:42:51.003Z,26.30
2018-08-06T09:50:18.984Z,26.60
2018-08-06T09:52:48.411Z,26.70
2018-08-06T09:55:20.049Z,26.90
2018-08-06T09:57:49.191Z,27.10
2018-08-06T10:00:24.103Z,27.30
2018-08-06T10:05:22.567Z,27.80
2018-08-06T10:07:51.463Z,28.10
2018-08-06T10:10:19.962Z,28.40
2018-08-06T10:12:48.531Z,28.60
2018-08-06T10:15:17.336Z,28.90
2018-08-06T10:22:47.939Z,29.70
2018-08-06T10:25:16.794Z,30.00
2018-08-06T10:27:46.075Z,30.10
2018-08-06T10:30:22.170Z,30.50
2018-08-06T10:32:50.579Z,30.80
2018-08-06T10:35:19.832Z,31.20
2018-08-06T10:40:22.643Z,31.80
2018-08-06T10:42:51.167Z,32.20
2018-08-06T10:45:21.039Z,32.70
2018-08-06T10:47:50.103Z,32.70
2018-08-06T10:50:18.612Z,33.10
2018-08-06T10:52:47.088Z,33.60
2018-08-06T10:55:15.567Z,33.60
2018-08-06T11:00:17.591Z,34.40
2018-08-06T11:02:46.311Z,34.30
2018-08-06T11:05:15.644Z,34.90
2018-08-06T11:07:44.176Z,35.60
2018-08-06T11:10:14.135Z,36.00
2018-08-06T11:15:14.248Z,37.00
2018-08-06T11:17:42.783Z,37.60
2018-08-06T11:20:12.591Z,38.30
2018-08-06T11:22:41.236Z,38.80
2018-08-06T11:25:11.243Z,39.10
2018-08-06T11:27:39.779Z,38.80
2018-08-06T11:30:10.768Z,39.10
2018-08-06T11:32:39.219Z,40.20
2018-08-06T11:35:08.699Z,40.80
2018-08-06T11:37:37.155Z,41.60
2018-08-06T11:40:06.892Z,42.20
2018-08-06T11:42:35.579Z,42.20
2018-08-06T11:45:04.276Z,43.10
2018-08-06T11:47:32.711Z,43.80
2018-08-06T11:50:01.187Z,43.80
2018-08-06T11:52:29.635Z,44.30
2018-08-06T11:54:58.107Z,45.00
2018-08-06T11:57:26.559Z,46.30
2018-08-06T11:59:55.047Z,46.90
2018-08-06T12:02:23.587Z,47.90
2018-08-06T12:04:52.040Z,49.20
2018-08-06T12:07:20.508Z,50.10
2018-08-06T12:09:48.939Z,51.30
2018-08-06T12:12:17.743Z,52.30
2018-08-06T12:17:14.352Z,52.80
2018-08-06T12:19:42.808Z,53.20
2018-08-06T12:22:11.312Z,54.60
2018-08-06T12:24:39.815Z,55.40
2018-08-06T12:27:08.294Z,56.30
2018-08-06T12:29:36.741Z,56.00
2018-08-06T12:32:05.276Z,56.00
2018-08-06T12:34:33.715Z,55.70
2018-08-06T12:37:02.211Z,54.50
2018-08-06T12:39:30.673Z,53.80
2018-08-06T12:41:59.160Z,54.40
2018-08-06T12:44:27.583Z,55.60
2018-08-06T12:46:56.043Z,56.10
2018-08-06T12:49:24.488Z,56.20
2018-08-06T12:51:52.956Z,56.20
2018-08-06T12:54:21.415Z,56.80
2018-08-06T12:59:18.000Z,57.60
2018-08-06T13:01:46.470Z,57.80
2018-08-06T13:04:14.912Z,56.20
2018-08-06T13:06:43.376Z,54.90
2018-08-06T13:09:11.881Z,54.50
2018-08-06T13:11:40.376Z,54.90
2018-08-06T13:14:08.809Z,54.60
2018-08-06T13:16:37.299Z,53.10
2018-08-06T13:19:05.724Z,51.20
2018-08-06T13:24:02.428Z,50.40
2018-08-06T13:26:30.899Z,48.80
2018-08-06T13:28:59.355Z,48.00
2018-08-06T13:31:27.798Z,47.70
2018-08-06T13:33:56.247Z,47.50
2018-08-06T13:36:24.759Z,47.40
2018-08-06T13:38:53.188Z,47.20
2018-08-06T13:41:21.677Z,45.20
2018-08-06T13:43:50.216Z,43.70
2018-08-06T13:46:18.799Z,43.00
2018-08-06T13:48:47.264Z,42.90
2018-08-06T13:51:15.715Z,43.10
2018-08-06T13:53:44.267Z,43.10
2018-08-06T13:56:12.772Z,43.20
2018-08-06T13:58:41.248Z,43.60
2018-08-06T14:01:09.724Z,44.10
2018-08-06T14:03:38.199Z,44.60
2018-08-06T14:08:34.824Z,45.10
2018-08-06T14:11:03.382Z,45.50
2018-08-06T14:13:31.823Z,46.00
2018-08-06T14:16:00.264Z,45.50
2018-08-06T14:18:28.723Z,44.50
2018-08-06T14:20:57.171Z,44.10
2018-08-06T14:23:25.656Z,43.50
2018-08-06T14:25:54.139Z,43.00
2018-08-06T14:28:22.591Z,42.50
2018-08-06T14:33:19.183Z,41.90
2018-08-06T14:35:47.636Z,41.20
2018-08-06T14:40:44.284Z,39.20
2018-08-06T14:45:40.883Z,39.10
2018-08-06T14:48:09.359Z,39.20
2018-08-06T14:50:37.791Z,38.90
2018-08-06T14:53:06.284Z,38.70
2018-08-06T14:58:02.916Z,38.10
2018-08-06T15:00:31.376Z,37.90
2018-08-06T15:02:59.869Z,37.70
2018-08-06T15:05:28.315Z,37.70
2018-08-06T15:07:56.832Z,37.80
2018-08-06T15:10:25.283Z,37.70
2018-08-06T15:12:53.740Z,37.80
2018-08-06T15:15:22.231Z,37.60
2018-08-06T15:20:19.477Z,37.60
2018-08-06T15:22:48.291Z,37.60
2018-08-06T15:25:19.402Z,37.80
2018-08-06T15:27:47.857Z,38.00
2018-08-06T15:30:16.339Z,38.20
2018-08-06T15:32:44.879Z,38.20
2018-08-06T15:35:13.851Z,38.40
2018-08-06T15:42:41.136Z,38.40
2018-08-06T15:45:10.339Z,38.10
2018-08-06T15:52:36.236Z,37.90
2018-08-06T15:55:04.970Z,38.00
2018-08-06T15:57:33.474Z,38.20
2018-08-06T16:00:02.091Z,38.20
2018-08-06T16:02:30.726Z,38.10
2018-08-06T16:04:59.188Z,38.20
2018-08-06T16:07:27.631Z,38.30
2018-08-06T16:09:56.075Z,38.30
2018-08-06T16:12:24.532Z,38.40
2018-08-06T16:14:52.991Z,38.30
2018-08-06T16:17:21.443Z,38.20
2018-08-06T16:19:49.933Z,38.30
2018-08-06T16:22:18.408Z,38.20
2018-08-06T16:24:46.920Z,38.20
2018-08-06T16:27:15.384Z,38.00
2018-08-06T16:29:43.815Z,37.70
2018-08-06T16:32:12.320Z,37.80
2018-08-06T16:34:40.864Z,37.70
2018-08-06T16:37:09.364Z,37.60
2018-08-06T16:39:37.840Z,37.30
2018-08-06T16:42:06.311Z,37.20
2018-08-06T16:44:34.763Z,37.10
2018-08-06T16:47:03.430Z,36.90
2018-08-06T16:49:31.916Z,36.80
2018-08-06T16:52:00.755Z,36.70
2018-08-06T16:54:30.216Z,36.50
2018-08-06T16:56:58.929Z,36.40
2018-08-06T16:59:28.970Z,36.20
2018-08-06T17:01:58.064Z,36.20
2018-08-06T17:04:27.320Z,36.20
2018-08-06T17:06:56.539Z,36.10
2018-08-06T17:09:25.187Z,35.80
2018-08-06T17:11:54.606Z,35.60
2018-08-06T17:14:23.640Z,35.50
2018-08-06T17:16:52.680Z,35.40
2018-08-06T17:19:21.135Z,35.40
2018-08-06T17:21:49.715Z,35.30
2018-08-06T17:24:18.548Z,35.20
2018-08-06T17:26:47.027Z,34.90
2018-08-06T17:29:15.491Z,34.80
2018-08-06T17:31:43.988Z,34.70
2018-08-06T17:34:12.460Z,34.30
2018-08-06T17:36:40.915Z,34.10
2018-08-06T17:39:10.512Z,33.80
2018-08-06T17:41:40.844Z,33.70
2018-08-06T17:44:09.517Z,33.70
2018-08-06T17:46:38.003Z,33.70
2018-08-06T17:49:06.692Z,33.70
2018-08-06T17:51:35.475Z,33.60
2018-08-06T17:56:38.460Z,33.50
2018-08-06T17:59:07.164Z,33.40
2018-08-06T18:01:35.687Z,33.30
2018-08-06T18:06:32.637Z,33.30
2018-08-06T18:11:29.278Z,33.10
2018-08-06T18:13:57.711Z,33.00
2018-08-06T18:16:26.192Z,32.90
2018-08-06T18:18:55.034Z,32.90
2018-08-06T18:21:23.519Z,32.70
2018-08-06T18:23:51.991Z,32.60
2018-08-06T18:26:20.435Z,32.50
2018-08-06T18:28:48.967Z,32.40
2018-08-06T18:31:17.412Z,32.40
2018-08-06T18:33:45.911Z,32.40
2018-08-06T18:36:14.543Z,32.30
2018-08-06T18:38:42.999Z,32.20
2018-08-06T18:43:39.674Z,32.00
2018-08-06T18:46:08.140Z,31.90
2018-08-06T18:51:04.738Z,31.70
2018-08-06T18:53:34.026Z,31.70
2018-08-06T18:56:02.590Z,31.60
2018-08-06T18:58:31.216Z,31.50
2018-08-06T19:00:59.793Z,31.40
2018-08-06T19:03:28.287Z,31.40
2018-08-06T19:05:56.747Z,31.40
2018-08-06T19:08:25.268Z,31.30
2018-08-06T19:10:53.740Z,31.30
2018-08-06T19:13:27.543Z,31.20
2018-08-06T19:15:56.014Z,31.10
2018-08-06T19:18:29.676Z,31.10
2018-08-06T19:20:58.091Z,31.00
2018-08-06T19:23:26.580Z,31.00
2018-08-06T19:25:55.028Z,30.90
2018-08-06T19:28:23.515Z,30.80
2018-08-06T19:30:57.255Z,30.70
2018-08-06T19:33:25.747Z,30.70
2018-08-06T19:35:54.251Z,30.60
2018-08-06T19:38:22.704Z,30.50
2018-08-06T19:40:51.171Z,30.50
2018-08-06T19:43:24.843Z,30.40
2018-08-06T19:48:21.412Z,30.30
2018-08-06T19:50:49.855Z,30.20
2018-08-06T19:53:18.332Z,30.10
2018-08-06T19:55:52.259Z,30.10
2018-08-06T19:58:20.747Z,30.00
2018-08-06T20:08:13.595Z,29.80
2018-08-06T20:10:42.028Z,29.70
2018-08-06T20:13:10.536Z,29.70
2018-08-06T20:15:39.027Z,29.60
2018-08-06T20:18:07.556Z,29.60
2018-08-06T20:20:36.055Z,29.50
2018-08-06T20:23:04.591Z,29.40
2018-08-06T20:25:33.016Z,29.30
2018-08-06T20:28:01.511Z,29.30
2018-08-06T20:30:30.019Z,29.20
2018-08-06T20:32:58.472Z,29.20
2018-08-06T20:35:27.018Z,29.10
2018-08-06T20:37:55.527Z,29.00
2018-08-06T20:40:24.038Z,29.00
2018-08-06T20:45:21.520Z,28.90
2018-08-06T20:50:19.613Z,28.90
2018-08-06T20:55:17.288Z,28.70
2018-08-06T20:57:46.171Z,28.70
2018-08-06T21:00:17.019Z,28.60
2018-08-06T21:05:14.199Z,28.50
2018-08-06T21:10:13.553Z,28.40
2018-08-06T21:12:42.447Z,28.40
2018-08-06T21:15:12.111Z,28.30
2018-08-06T21:20:11.339Z,28.20
2018-08-06T21:22:40.300Z,28.20
2018-08-06T21:25:10.135Z,28.10
2018-08-06T21:30:14.110Z,28.00
2018-08-06T21:32:47.009Z,27.90
2018-08-06T21:35:16.048Z,27.90
2018-08-06T21:37:44.720Z,27.90
2018-08-06T21:40:13.225Z,27.80
2018-08-06T21:42:41.651Z,27.70
2018-08-06T21:45:10.270Z,27.70
2018-08-06T21:47:38.815Z,27.70
2018-08-06T21:50:07.967Z,27.60
2018-08-06T21:52:36.467Z,27.60
2018-08-06T21:55:05.487Z,27.50
2018-08-06T21:57:33.979Z,27.50
2018-08-06T22:00:02.632Z,27.40
2018-08-06T22:02:31.168Z,27.40
2018-08-06T22:04:59.631Z,27.40
2018-08-06T22:07:28.121Z,27.30
2018-08-06T22:09:56.588Z,27.30
2018-08-06T22:12:25.025Z,27.30
2018-08-06T22:17:21.620Z,27.10
2018-08-06T22:19:51.146Z,27.10
2018-08-06T22:22:19.639Z,27.00
2018-08-06T22:24:48.063Z,27.00
2018-08-06T22:27:16.575Z,26.90
2018-08-06T22:29:45.125Z,26.90
2018-08-06T22:32:13.696Z,26.90
2018-08-06T22:37:10.463Z,26.80
2018-08-06T22:42:07.152Z,26.80
2018-08-06T22:44:35.592Z,26.70
2018-08-06T22:49:32.291Z,26.60
2018-08-06T22:52:00.892Z,26.60
2018-08-06T22:54:29.396Z,26.60
2018-08-06T22:56:57.864Z,26.50
2018-08-06T22:59:26.311Z,26.40
2018-08-06T23:01:54.835Z,26.40
2018-08-06T23:04:23.296Z,26.30
2018-08-06T23:06:51.803Z,26.20
2018-08-06T23:09:20.272Z,26.20
2018-08-06T23:11:48.739Z,26.20
2018-08-06T23:14:17.177Z,26.10
2018-08-06T23:19:13.780Z,26.10
2018-08-06T23:21:42.247Z,26.00
2018-08-06T23:24:10.704Z,25.90
2018-08-06T23:26:39.191Z,25.90
2018-08-06T23:29:07.699Z,25.80
2018-08-06T23:31:36.173Z,25.80
2018-08-06T23:34:04.703Z,25.80
2018-08-06T23:36:33.191Z,25.80
2018-08-06T23:39:01.669Z,25.70
2018-08-06T23:41:30.115Z,25.70
2018-08-06T23:43:58.586Z,25.60
2018-08-06T23:46:27.047Z,25.60
2018-08-06T23:48:55.836Z,25.60
2018-08-06T23:51:24.303Z,25.30
2018-08-06T23:53:52.804Z,25.20
2018-08-06T23:56:21.298Z,25.10
2018-08-06T23:58:49.776Z,25.00
